Time;durP1;ratioP1;P1;durP2;ratioP2;P2;SDS_P1;SDS_P2;PMS_P1;PMS_P2;Temp;Humidity;BMP_temperature;BMP_pressure;BME280_temperature;BME280_humidity;BME280_pressure;Samples;Min_cycle;Max_cycle;Signal;HPM_P1;HPM_P2
2023/10/22 00:00:07;;;;;;;5.17;3.87;;;14.10;99.90;;;;;;7776859;28;20203;-87
2023/10/22 00:03:53;;;;;;;5.17;3.70;;;14.10;99.90;;;;;;7770850;28;20257;-86
2023/10/22 00:07:38;;;;;;;3.90;3.17;;;14.10;99.90;;;;;;7752600;28;20204;-87
2023/10/22 00:11:24;;;;;;;5.90;3.87;;;14.00;99.90;;;;;;7775434;28;20251;-87
2023/10/22 00:15:10;;;;;;;4.43;3.10;;;14.00;99.90;;;;;;7767303;28;20183;-87
2023/10/22 00:18:55;;;;;;;4.50;2.80;;;14.00;99.90;;;;;;7777861;28;20676;-87
2023/10/22 00:22:41;;;;;;;3.13;2.47;;;13.90;99.90;;;;;;7758874;28;20191;-87
2023/10/22 00:26:27;;;;;;;3.27;2.30;;;14.00;99.90;;;;;;7764164;28;20175;-87
2023/10/22 00:30:12;;;;;;;3.47;2.40;;;14.00;99.90;;;;;;7775180;28;20199;-87
2023/10/22 00:33:58;;;;;;;3.83;2.93;;;13.90;99.90;;;;;;7773211;28;20206;-87
2023/10/22 00:37:44;;;;;;;3.70;2.10;;;13.90;99.90;;;;;;7756160;28;20199;-87
2023/10/22 00:41:30;;;;;;;3.47;2.60;;;13.80;99.90;;;;;;7770768;28;20553;-87
2023/10/22 00:45:15;;;;;;;5.30;2.57;;;13.80;99.90;;;;;;7765603;28;20180;-87
2023/10/22 00:49:01;;;;;;;4.80;2.57;;;13.80;99.90;;;;;;7762610;28;20709;-86
2023/10/22 00:52:47;;;;;;;4.17;2.70;;;13.80;99.90;;;;;;7769791;28;20257;-86
2023/10/22 00:56:34;;;;;;;2.80;2.50;;;13.80;99.90;;;;;;7783065;28;20196;-88
2023/10/22 01:00:20;;;;;;;2.77;2.50;;;13.70;99.90;;;;;;7783223;28;20282;-87
2023/10/22 01:04:06;;;;;;;4.33;2.63;;;13.70;99.90;;;;;;7782673;28;20187;-87
2023/10/22 01:07:52;;;;;;;5.00;2.83;;;13.80;99.90;;;;;;7782410;28;20210;-87
2023/10/22 01:12:00;;;;;;;2.77;2.07;;;13.70;99.90;;;;;;7786413;28;20677;-88
2023/10/22 01:15:46;;;;;;;2.40;2.00;;;13.60;99.90;;;;;;7785308;28;20546;-89
2023/10/22 01:19:32;;;;;;;3.10;1.63;;;13.50;99.90;;;;;;7784222;28;20231;-88
2023/10/22 01:23:18;;;;;;;1.83;1.60;;;13.50;99.90;;;;;;7775444;28;20180;-87
2023/10/22 01:27:03;;;;;;;2.83;1.80;;;13.50;99.90;;;;;;7780608;28;20210;-87
2023/10/22 01:30:49;;;;;;;2.93;2.37;;;13.40;99.90;;;;;;7781010;28;20179;-87
2023/10/22 01:34:34;;;;;;;3.93;1.90;;;13.40;99.90;;;;;;7770684;28;20270;-87
2023/10/22 01:38:20;;;;;;;5.37;2.27;;;13.30;99.90;;;;;;7778730;28;20230;-87
2023/10/22 01:42:06;;;;;;;5.60;2.10;;;13.30;99.90;;;;;;7781325;28;20184;-87
2023/10/22 01:45:51;;;;;;;2.33;1.90;;;13.30;99.90;;;;;;7782447;28;20210;-88
2023/10/22 01:49:38;;;;;;;2.13;1.93;;;13.20;99.90;;;;;;7780439;28;20274;-87
2023/10/22 01:53:23;;;;;;;3.60;2.17;;;13.20;99.90;;;;;;7778666;28;20563;-86
2023/10/22 01:57:09;;;;;;;2.90;1.60;;;13.10;99.90;;;;;;7760912;28;20207;-87
2023/10/22 02:01:02;;;;;;;2.33;1.70;;;13.10;99.90;;;;;;7775638;28;20209;-88
2023/10/22 02:04:48;;;;;;;3.43;1.93;;;13.20;99.90;;;;;;7780187;28;20168;-87
2023/10/22 02:08:33;;;;;;;3.23;1.83;;;13.20;99.90;;;;;;7782211;28;20210;-87
2023/10/22 02:12:27;;;;;;;2.27;1.90;;;13.20;99.90;;;;;;7783339;28;20203;-87
2023/10/22 02:16:13;;;;;;;2.57;1.80;;;13.30;99.90;;;;;;7779558;28;20226;-88
2023/10/22 02:19:58;;;;;;;2.93;1.80;;;13.30;99.90;;;;;;7779332;28;20176;-87
2023/10/22 02:23:44;;;;;;;3.47;1.97;;;13.30;99.90;;;;;;7771405;28;20202;-87
2023/10/22 02:27:30;;;;;;;3.07;1.90;;;13.40;99.90;;;;;;7779265;28;20215;-88
2023/10/22 02:31:15;;;;;;;3.50;2.03;;;13.40;99.90;;;;;;7778857;28;20203;-87
2023/10/22 02:35:01;;;;;;;5.00;4.50;;;13.50;99.90;;;;;;7779099;28;20191;-87
2023/10/22 02:38:47;;;;;;;3.87;3.50;;;13.50;99.90;;;;;;7779667;28;20207;-87
2023/10/22 02:42:32;;;;;;;2.90;2.47;;;13.50;99.90;;;;;;7772074;28;20200;-88
2023/10/22 02:46:18;;;;;;;2.13;1.93;;;13.50;99.90;;;;;;7776955;28;20198;-87
2023/10/22 02:50:04;;;;;;;2.80;1.60;;;13.50;99.90;;;;;;7810634;22;20923;-88
2023/10/22 02:53:50;;;;;;;1.67;1.57;;;13.50;99.90;;;;;;7799151;28;20215;-88
2023/10/22 02:57:35;;;;;;;4.80;1.33;;;13.50;99.90;;;;;;7806662;28;20179;-87
2023/10/22 03:01:21;;;;;;;3.43;1.67;;;13.50;99.90;;;;;;7805939;28;20570;-88
2023/10/22 03:05:07;;;;;;;1.30;1.10;;;13.50;99.90;;;;;;7806950;28;20206;-88
2023/10/22 03:08:53;;;;;;;1.50;1.30;;;13.50;99.90;;;;;;7791383;28;20183;-88
2023/10/22 03:12:39;;;;;;;1.53;1.30;;;13.50;99.90;;;;;;7806947;28;20704;-88
2023/10/22 03:16:24;;;;;;;1.97;1.30;;;13.50;99.90;;;;;;7803405;28;20559;-88
2023/10/22 03:20:10;;;;;;;1.30;1.20;;;13.40;99.90;;;;;;7801399;28;20182;-88
2023/10/22 03:23:56;;;;;;;1.43;1.30;;;13.50;99.90;;;;;;7818475;22;20778;-84
2023/10/22 03:27:42;;;;;;;2.57;1.53;;;13.50;99.90;;;;;;7799102;28;20574;-85
2023/10/22 03:31:27;;;;;;;1.77;1.27;;;13.40;99.90;;;;;;7821632;28;20198;-84
2023/10/22 03:35:13;;;;;;;3.13;1.40;;;13.40;99.90;;;;;;7830524;28;20198;-85
2023/10/22 03:38:58;;;;;;;3.60;1.53;;;13.40;99.90;;;;;;7812934;28;20237;-86
2023/10/22 03:42:44;;;;;;;3.87;1.40;;;13.40;99.90;;;;;;7812620;28;20691;-84
2023/10/22 03:46:30;;;;;;;1.27;1.10;;;13.40;99.90;;;;;;7798629;28;20252;-85
2023/10/22 03:50:15;;;;;;;1.37;1.20;;;13.40;99.90;;;;;;7795467;28;20578;-85
2023/10/22 03:54:01;;;;;;;1.73;1.20;;;13.40;99.90;;;;;;7813549;28;20215;-84
2023/10/22 03:57:46;;;;;;;1.50;1.20;;;13.40;99.90;;;;;;7803097;28;20262;-85
2023/10/22 04:01:32;;;;;;;1.90;1.20;;;13.40;99.90;;;;;;7789080;28;20209;-85
2023/10/22 04:05:18;;;;;;;2.13;1.47;;;13.40;99.90;;;;;;7805297;28;20206;-84
2023/10/22 04:09:03;;;;;;;1.53;1.20;;;13.40;99.90;;;;;;7806551;28;20254;-85
2023/10/22 04:12:49;;;;;;;3.83;1.33;;;13.40;99.90;;;;;;7803615;28;20211;-85
2023/10/22 04:16:35;;;;;;;1.67;1.17;;;13.40;99.90;;;;;;7803164;28;20212;-85
2023/10/22 04:20:21;;;;;;;2.30;1.30;;;13.30;99.90;;;;;;7801020;28;20181;-84
2023/10/22 04:24:07;;;;;;;3.00;1.10;;;13.30;99.90;;;;;;7805922;28;20210;-84
2023/10/22 04:27:53;;;;;;;2.43;1.47;;;13.20;99.90;;;;;;7819160;28;20186;-86
2023/10/22 04:31:38;;;;;;;3.77;1.80;;;13.10;99.90;;;;;;7794646;28;20347;-84
2023/10/22 04:35:24;;;;;;;1.90;1.37;;;13.00;99.90;;;;;;7809963;28;20237;-84
2023/10/22 04:39:10;;;;;;;1.23;1.07;;;12.80;99.90;;;;;;7802662;28;20190;-84
2023/10/22 04:42:57;;;;;;;3.27;1.40;;;12.90;99.90;;;;;;7807714;28;20682;-84
2023/10/22 04:46:42;;;;;;;3.23;1.80;;;12.90;99.90;;;;;;7808155;28;20240;-85
2023/10/22 04:50:29;;;;;;;3.43;2.77;;;12.80;99.90;;;;;;7811006;28;20186;-85
2023/10/22 04:54:15;;;;;;;5.20;3.83;;;12.70;99.90;;;;;;7811292;28;20280;-85
2023/10/22 04:58:02;;;;;;;4.27;3.37;;;12.50;99.90;;;;;;7830285;28;20190;-87
2023/10/22 05:01:48;;;;;;;7.30;3.40;;;12.50;99.90;;;;;;7799777;28;20655;-87
2023/10/22 05:05:35;;;;;;;5.00;3.03;;;12.50;99.90;;;;;;7809982;28;20649;-85
2023/10/22 05:09:20;;;;;;;3.10;2.60;;;12.50;99.90;;;;;;7814842;28;20187;-86
2023/10/22 05:13:08;;;;;;;3.87;2.30;;;12.50;99.90;;;;;;7810961;28;20218;-84
2023/10/22 05:16:54;;;;;;;3.03;2.30;;;12.50;99.90;;;;;;7794704;28;20183;-84
2023/10/22 05:20:39;;;;;;;2.20;2.00;;;12.70;99.90;;;;;;7809659;28;20285;-88
2023/10/22 05:24:26;;;;;;;3.20;2.03;;;12.80;99.90;;;;;;7824142;28;20232;-85
2023/10/22 05:28:11;;;;;;;2.93;1.80;;;12.80;99.90;;;;;;7815376;28;20190;-88
2023/10/22 05:31:57;;;;;;;3.10;1.87;;;12.90;99.90;;;;;;7808797;28;20201;-84
2023/10/22 05:35:43;;;;;;;2.37;1.90;;;12.90;99.90;;;;;;7809775;28;20194;-85
2023/10/22 05:39:29;;;;;;;2.50;1.50;;;13.00;99.90;;;;;;7805389;28;20843;-86
2023/10/22 05:43:15;;;;;;;3.20;1.43;;;13.00;99.90;;;;;;7807237;28;20205;-84
2023/10/22 05:47:01;;;;;;;1.30;1.10;;;13.00;99.90;;;;;;7805379;28;20174;-84
2023/10/22 05:50:46;;;;;;;1.13;0.80;;;13.00;99.90;;;;;;7799169;28;20679;-85
2023/10/22 05:54:32;;;;;;;1.53;1.00;;;12.90;99.90;;;;;;7803368;28;20285;-84
2023/10/22 05:58:18;;;;;;;2.73;1.17;;;13.00;99.90;;;;;;7808058;28;20534;-86
2023/10/22 06:02:05;;;;;;;2.87;1.77;;;13.00;99.90;;;;;;7799774;28;20273;-85
2023/10/22 06:05:50;;;;;;;1.93;0.90;;;13.00;99.90;;;;;;7800639;28;20207;-85
2023/10/22 06:09:36;;;;;;;1.17;0.70;;;13.00;99.90;;;;;;7806728;28;20190;-86
2023/10/22 06:13:22;;;;;;;1.13;0.70;;;13.00;99.90;;;;;;7806989;28;20691;-83
2023/10/22 06:17:07;;;;;;;1.90;0.60;;;13.00;99.90;;;;;;7806396;28;20193;-84
2023/10/22 06:20:53;;;;;;;0.70;0.50;;;13.00;99.90;;;;;;7807308;28;20174;-84
2023/10/22 06:24:40;;;;;;;1.40;0.80;;;13.00;99.90;;;;;;7804371;28;20218;-85
2023/10/22 06:28:26;;;;;;;0.70;0.70;;;13.00;99.90;;;;;;7810178;28;20217;-85
2023/10/22 06:32:11;;;;;;;0.70;0.60;;;12.90;99.90;;;;;;7809164;28;20229;-84
2023/10/22 06:35:57;;;;;;;0.80;0.80;;;12.90;99.90;;;;;;7804412;28;20174;-87
